createdAt,value
2024-02-08T10:35:22.630Z,79.12
2024-02-08T10:40:31.442Z,75.85
2024-02-08T10:45:45.432Z,65.54
2024-02-08T10:50:51.090Z,68.59
2024-02-08T10:55:57.307Z,65.35
2024-02-08T11:01:14.346Z,63.53
2024-02-08T11:06:30.695Z,58.88
2024-02-08T11:11:33.623Z,59.35
2024-02-08T11:16:39.032Z,57.30
2024-02-08T11:21:45.290Z,56.32
2024-02-08T11:26:55.932Z,48.69
2024-02-08T11:31:57.756Z,50.32
2024-02-08T11:37:00.821Z,50.49
2024-02-08T11:42:17.354Z,49.75
2024-02-08T11:47:24.732Z,48.73
2024-02-08T11:52:26.696Z,42.12
2024-02-08T11:57:37.942Z,49.17
2024-02-08T12:02:40.207Z,51.22
2024-02-08T12:07:46.688Z,52.62
2024-02-08T12:12:54.121Z,53.26
2024-02-08T12:18:08.710Z,52.21
2024-02-08T12:23:10.360Z,52.54
2024-02-08T12:28:12.716Z,52.96
2024-02-08T12:33:14.471Z,52.07
2024-02-08T12:38:18.772Z,52.50
2024-02-08T12:43:20.950Z,52.88
2024-02-08T12:48:25.420Z,52.51
2024-02-08T12:53:26.925Z,53.45
2024-02-08T12:58:29.636Z,52.95
2024-02-08T13:03:38.461Z,53.47
2024-02-08T13:08:46.288Z,54.77
2024-02-08T13:13:49.504Z,55.16
2024-02-08T13:18:55.997Z,54.47
2024-02-08T13:23:58.049Z,54.46
2024-02-08T13:29:01.117Z,55.20
2024-02-08T13:34:03.209Z,55.70
2024-02-08T13:39:05.154Z,55.81
2024-02-08T13:44:06.793Z,56.06
2024-02-08T13:49:08.907Z,56.46
2024-02-08T13:54:13.853Z,56.76
2024-02-08T13:59:15.993Z,56.33
2024-02-08T14:04:22.226Z,56.47
2024-02-08T14:09:26.498Z,57.15
2024-02-08T14:14:41.290Z,57.78
2024-02-08T14:19:45.152Z,58.27
2024-02-08T14:24:52.791Z,58.66
2024-02-08T14:29:54.277Z,59.29
2024-02-08T14:34:59.992Z,59.15
2024-02-08T14:40:02.249Z,59.50
2024-02-08T14:45:13.029Z,59.37
2024-02-08T14:50:34.981Z,59.87
2024-02-08T14:55:36.829Z,59.68
2024-02-08T15:00:38.347Z,60.16
2024-02-08T15:05:49.789Z,60.82
2024-02-08T15:11:26.913Z,60.82
2024-02-08T15:16:34.405Z,61.82
2024-02-08T15:21:36.779Z,61.80
2024-02-08T15:26:39.214Z,61.66
2024-02-08T15:31:46.786Z,61.94
2024-02-08T15:36:50.000Z,62.35
2024-02-08T15:41:53.335Z,62.69
2024-02-08T15:46:58.104Z,62.53
2024-02-08T15:51:59.653Z,62.40
2024-02-08T15:57:08.927Z,63.49
2024-02-08T16:02:17.916Z,63.75
2024-02-08T16:07:29.268Z,63.46
2024-02-08T16:12:31.109Z,63.62
2024-02-08T16:17:32.798Z,63.80
2024-02-08T16:22:54.128Z,63.67
2024-02-08T16:28:01.472Z,64.48
2024-02-08T16:33:10.284Z,64.36
2024-02-08T16:38:17.947Z,65.22
2024-02-08T16:43:29.605Z,64.66
2024-02-08T16:48:45.953Z,64.74
2024-02-08T16:54:02.614Z,64.54
2024-02-08T16:59:10.908Z,65.64
2024-02-08T17:04:13.936Z,64.95
2024-02-08T17:09:15.467Z,65.59
2024-02-08T17:14:34.199Z,65.80
2024-02-08T17:19:36.025Z,65.61
2024-02-08T17:24:43.176Z,66.11
2024-02-08T17:29:52.050Z,66.33
2024-02-08T17:34:54.135Z,66.11
2024-02-08T17:39:57.573Z,66.26
2024-02-08T17:45:02.064Z,66.45
2024-02-08T17:50:07.329Z,66.75
2024-02-08T17:55:09.241Z,66.99
2024-02-08T18:00:13.701Z,67.02
2024-02-08T18:05:16.002Z,66.67
2024-02-08T18:10:18.607Z,67.32
2024-02-08T18:15:25.433Z,67.07
2024-02-08T18:20:31.372Z,67.24
2024-02-08T18:25:33.820Z,67.51
2024-02-08T18:30:36.837Z,68.04
2024-02-08T18:35:38.859Z,67.82
2024-02-08T18:40:40.706Z,68.48
2024-02-08T18:45:50.027Z,67.93
2024-02-08T18:50:52.037Z,68.05
2024-02-08T18:55:59.995Z,68.24
2024-02-08T19:01:01.799Z,68.56
2024-02-08T19:06:03.421Z,68.29
2024-02-08T19:11:05.200Z,68.40
2024-02-08T19:16:09.351Z,68.88
2024-02-08T19:21:15.396Z,68.87
2024-02-08T19:26:26.226Z,69.28
2024-02-08T19:31:31.453Z,69.26
2024-02-08T19:36:33.694Z,69.47
2024-02-08T19:41:35.273Z,69.74
2024-02-08T19:46:39.899Z,70.02
2024-02-08T19:51:46.245Z,70.11
2024-02-08T19:56:49.237Z,69.82
2024-02-08T20:01:50.850Z,69.62
2024-02-08T20:06:56.047Z,70.03
2024-02-08T20:11:59.756Z,69.48
2024-02-08T20:17:03.747Z,69.46
2024-02-08T20:22:13.254Z,70.17
2024-02-08T20:27:15.760Z,69.92
2024-02-08T20:32:21.129Z,69.82
2024-02-08T20:37:25.913Z,69.94
2024-02-08T20:42:30.047Z,70.21
2024-02-08T20:47:31.552Z,70.33
2024-02-08T20:52:33.913Z,70.25
2024-02-08T20:57:41.196Z,70.53
2024-02-08T21:02:42.635Z,70.18
2024-02-08T21:07:48.248Z,70.16
2024-02-08T21:12:49.761Z,71.03
2024-02-08T21:17:51.298Z,70.27
2024-02-08T21:22:53.144Z,70.02
2024-02-08T21:27:54.815Z,70.64
2024-02-08T21:32:56.636Z,70.86
2024-02-08T21:38:00.318Z,70.73
2024-02-08T21:43:11.563Z,71.19
2024-02-08T21:48:17.406Z,71.12
2024-02-08T21:53:21.730Z,71.37
2024-02-08T21:58:24.308Z,71.06
2024-02-08T22:03:28.368Z,70.65
2024-02-08T22:08:30.320Z,71.03
2024-02-08T22:13:32.029Z,71.29
2024-02-08T22:18:33.690Z,71.50
2024-02-08T22:23:37.860Z,71.90
2024-02-08T22:28:41.722Z,71.31
2024-02-08T22:33:43.827Z,71.54
2024-02-08T22:38:46.918Z,71.95
2024-02-08T22:43:48.524Z,71.28
2024-02-08T22:48:50.089Z,71.09
2024-02-08T22:53:51.892Z,71.71
2024-02-08T22:58:53.428Z,71.65
2024-02-08T23:03:56.715Z,70.77
2024-02-08T23:09:08.784Z,71.20
2024-02-08T23:14:12.318Z,71.98
2024-02-08T23:19:14.737Z,71.11
2024-02-08T23:24:19.854Z,71.84
2024-02-08T23:29:26.089Z,71.74
2024-02-08T23:34:27.889Z,72.36
2024-02-08T23:39:29.664Z,71.79
2024-02-08T23:44:31.244Z,71.69
2024-02-08T23:49:36.044Z,71.30
2024-02-08T23:54:37.653Z,71.36
2024-02-08T23:59:39.313Z,71.77
